createdAt,value
2022-11-05T03:06:10.454Z,8.40
2022-11-05T03:09:16.751Z,8.40
2022-11-05T03:12:11.556Z,8.50
2022-11-05T03:15:11.325Z,8.60
2022-11-05T03:18:02.866Z,8.60
2022-11-05T03:48:27.902Z,8.70
2022-11-05T03:51:22.813Z,8.80
2022-11-05T03:54:10.476Z,8.70
2022-11-05T03:57:15.857Z,8.80
2022-11-05T04:00:06.050Z,8.80
2022-11-05T04:12:37.004Z,8.80
2022-11-05T04:16:04.963Z,8.80
2022-11-05T04:18:52.282Z,8.80
2022-11-05T04:21:58.561Z,8.70
2022-11-05T04:27:57.975Z,8.70
2022-11-05T04:30:59.015Z,8.70
2022-11-05T04:33:50.153Z,8.60
2022-11-05T04:39:45.430Z,8.60
2022-11-05T04:51:59.223Z,8.60
2022-11-05T05:37:14.990Z,8.40
2022-11-05T05:40:12.755Z,8.50
2022-11-05T05:43:00.741Z,8.50
2022-11-05T05:49:12.527Z,8.40
2022-11-05T06:46:34.904Z,8.50
2022-11-05T06:53:04.498Z,8.50
2022-11-05T06:56:01.793Z,8.60
2022-11-05T07:17:14.470Z,8.70
2022-11-05T07:20:02.037Z,8.70
2022-11-05T07:22:50.359Z,8.50
2022-11-05T07:25:45.829Z,8.60
2022-11-05T07:28:35.857Z,8.60
2022-11-05T07:31:23.721Z,8.50
2022-11-05T07:34:11.657Z,8.50
2022-11-05T07:36:59.191Z,8.50
2022-11-05T07:39:52.098Z,8.50
2022-11-05T07:42:47.624Z,8.60
2022-11-05T07:45:38.130Z,8.60
2022-11-05T07:48:25.908Z,8.60
2022-11-05T07:51:13.593Z,8.70
2022-11-05T07:54:06.131Z,8.80
2022-11-05T07:56:54.058Z,8.80
2022-11-05T07:59:44.135Z,8.80
2022-11-05T08:02:34.528Z,9.00
2022-11-05T08:05:29.564Z,9.10
2022-11-05T08:08:20.229Z,9.20
2022-11-05T08:11:11.622Z,9.30
2022-11-05T08:13:59.280Z,9.30
2022-11-05T08:16:47.343Z,9.20
2022-11-05T08:19:38.665Z,9.40
2022-11-05T08:22:29.780Z,9.40
2022-11-05T08:29:23.276Z,9.80
2022-11-05T08:36:11.535Z,15.20
2022-11-05T08:39:15.807Z,15.90
2022-11-05T08:49:58.643Z,12.70
2022-11-05T08:52:47.490Z,12.20
2022-11-05T08:55:38.797Z,12.00
2022-11-05T08:58:30.137Z,11.90
2022-11-05T09:14:02.192Z,11.40
2022-11-05T09:28:54.208Z,12.10
2022-11-05T10:03:51.306Z,11.60
2022-11-05T10:06:46.808Z,11.50
2022-11-05T10:09:47.927Z,11.60
2022-11-05T10:12:57.804Z,11.60
2022-11-05T10:15:58.756Z,11.60
2022-11-05T10:18:51.402Z,11.50
2022-11-05T10:24:48.469Z,11.40
2022-11-05T10:27:37.707Z,11.30
2022-11-05T10:30:27.108Z,11.30
2022-11-05T10:33:36.957Z,11.20
2022-11-05T10:36:41.394Z,11.10
2022-11-05T10:39:35.303Z,11.20
2022-11-05T11:52:52.810Z,12.30
2022-11-05T11:55:40.428Z,12.30
2022-11-05T11:58:37.057Z,12.60
2022-11-05T12:01:25.696Z,13.00
2022-11-05T12:04:14.168Z,13.40
2022-11-05T12:07:14.261Z,13.40
2022-11-05T12:10:09.825Z,13.10
2022-11-05T12:13:17.425Z,12.90
2022-11-05T12:16:34.948Z,13.10
2022-11-05T12:19:36.938Z,13.00
2022-11-05T12:22:34.963Z,13.00
2022-11-05T12:25:22.367Z,12.90
2022-11-05T12:28:22.084Z,12.60
2022-11-05T12:31:12.146Z,12.40
2022-11-05T12:34:26.541Z,12.30
2022-11-05T12:37:19.907Z,12.50
2022-11-05T12:40:14.260Z,12.50
2022-11-05T12:43:49.905Z,12.60
2022-11-05T13:26:30.923Z,12.20
2022-11-05T13:29:35.292Z,12.30
2022-11-05T13:32:32.845Z,12.20
2022-11-05T13:35:23.851Z,12.10
2022-11-05T13:38:43.840Z,12.00
2022-11-05T13:41:36.661Z,12.10
2022-11-05T13:44:43.992Z,12.10
2022-11-05T13:51:32.397Z,12.20
2022-11-05T13:54:33.218Z,12.10
2022-11-05T14:05:53.228Z,12.00
2022-11-05T14:09:14.299Z,12.00
2022-11-05T14:12:02.407Z,11.90
2022-11-05T14:14:58.854Z,12.00
2022-11-05T14:18:04.059Z,12.00
2022-11-05T14:21:17.800Z,11.80
2022-11-05T14:24:30.237Z,11.70
2022-11-05T14:27:33.814Z,11.90
2022-11-05T14:30:41.213Z,11.70
2022-11-05T14:33:29.205Z,11.70
2022-11-05T14:36:23.626Z,11.70
2022-11-05T14:39:40.496Z,11.70
2022-11-05T14:42:34.441Z,11.80
2022-11-05T14:48:51.244Z,11.60
2022-11-05T14:52:00.850Z,11.50
2022-11-05T14:54:58.270Z,11.60
2022-11-05T14:57:48.977Z,11.50
2022-11-05T15:00:41.561Z,11.60
2022-11-05T15:03:46.692Z,11.50
2022-11-05T15:06:37.291Z,11.40
2022-11-05T15:09:37.859Z,11.50
2022-11-05T15:12:34.369Z,11.50
2022-11-05T15:15:42.743Z,11.40
2022-11-05T15:18:35.335Z,11.40
2022-11-05T15:21:34.507Z,11.50
2022-11-05T15:24:21.922Z,11.40
2022-11-05T15:27:16.898Z,11.40
2022-11-05T15:30:21.363Z,11.40
2022-11-05T15:33:10.771Z,11.50
2022-11-05T15:36:09.260Z,11.40
2022-11-05T15:39:27.873Z,11.40
2022-11-05T15:42:17.444Z,11.40
2022-11-05T15:45:19.950Z,11.30
2022-11-05T15:48:20.312Z,11.20
2022-11-05T15:51:10.236Z,11.20
2022-11-05T15:54:36.479Z,11.20
2022-11-05T15:57:23.775Z,11.20
2022-11-05T16:00:22.161Z,11.20
2022-11-05T16:03:21.538Z,11.10
2022-11-05T16:06:18.951Z,11.10
2022-11-05T16:09:07.142Z,11.00
2022-11-05T16:12:18.993Z,11.00
2022-11-05T16:15:09.351Z,11.10
2022-11-05T16:18:01.721Z,11.10
2022-11-05T16:21:04.221Z,11.00
2022-11-05T16:23:51.541Z,11.00
2022-11-05T16:32:45.456Z,10.90
2022-11-05T17:05:29.211Z,10.90
2022-11-05T17:09:18.121Z,10.80
2022-11-05T17:12:05.738Z,10.80
2022-11-05T17:18:30.828Z,10.80
2022-11-05T17:21:22.374Z,10.70
2022-11-05T17:24:38.619Z,10.80
2022-11-05T17:27:40.550Z,10.80
2022-11-05T17:30:41.717Z,10.80
2022-11-05T17:33:53.105Z,10.80
2022-11-05T17:36:45.725Z,10.70
2022-11-05T17:39:44.149Z,10.80
2022-11-05T17:46:06.311Z,10.80
2022-11-05T17:49:10.157Z,10.80
2022-11-05T17:52:24.255Z,10.70
2022-11-05T17:55:42.330Z,10.70
2022-11-05T17:58:33.020Z,10.70
2022-11-05T18:01:53.302Z,10.60
2022-11-05T18:04:48.084Z,10.70
2022-11-05T18:07:45.998Z,10.60
2022-11-05T18:14:07.104Z,10.60
2022-11-05T18:17:00.128Z,10.50
2022-11-05T18:22:59.715Z,10.70
2022-11-05T18:25:51.874Z,10.70
2022-11-05T18:35:30.269Z,10.70
2022-11-05T18:38:27.901Z,10.60
2022-11-05T18:41:18.512Z,10.70
2022-11-05T18:44:10.726Z,10.70
2022-11-05T18:47:01.379Z,10.70
2022-11-05T18:49:56.003Z,10.80
2022-11-05T18:52:44.457Z,10.70
2022-11-05T18:55:32.327Z,10.70
2022-11-05T18:58:22.379Z,10.70
2022-11-05T19:01:23.715Z,10.70
2022-11-05T19:04:15.392Z,10.60
2022-11-05T19:07:05.653Z,10.70
2022-11-05T19:09:54.426Z,10.60
2022-11-05T19:12:43.431Z,10.70
2022-11-05T19:15:31.352Z,10.70
2022-11-05T19:18:22.855Z,10.70
2022-11-05T19:21:11.897Z,10.70
2022-11-05T19:24:02.601Z,10.70
2022-11-05T19:26:50.611Z,10.80
2022-11-05T19:29:38.453Z,10.90
2022-11-05T19:32:26.200Z,10.80
2022-11-05T19:35:14.314Z,10.80
2022-11-05T19:38:05.771Z,10.80
2022-11-05T19:40:54.721Z,10.90
2022-11-05T19:43:43.394Z,10.90
2022-11-05T19:46:35.697Z,10.90
2022-11-05T19:49:28.550Z,10.90
2022-11-05T19:52:18.058Z,10.80
2022-11-05T19:55:11.041Z,10.80
2022-11-05T19:58:01.816Z,11.00
2022-11-05T20:00:49.882Z,10.90
2022-11-05T20:03:47.291Z,10.90
2022-11-05T20:06:39.458Z,10.90
2022-11-05T20:09:29.799Z,10.80
2022-11-05T20:12:21.552Z,10.90
2022-11-05T20:15:09.808Z,10.90
2022-11-05T20:18:25.760Z,10.90
2022-11-05T20:25:09.783Z,10.80
2022-11-05T20:27:59.643Z,10.90
2022-11-05T20:30:53.245Z,10.90
2022-11-05T20:33:49.309Z,10.80
2022-11-05T20:36:48.927Z,10.80
2022-11-05T20:52:11.970Z,10.90
2022-11-05T20:55:19.386Z,10.80
2022-11-05T20:58:20.227Z,10.90
2022-11-05T21:01:15.688Z,10.90
2022-11-05T21:04:28.108Z,10.90
2022-11-05T21:18:07.785Z,10.80
2022-11-05T21:27:06.557Z,10.80
2022-11-05T21:30:06.994Z,10.80
2022-11-05T21:33:05.501Z,10.80
2022-11-05T21:36:17.529Z,10.90
2022-11-05T21:39:13.733Z,10.80
2022-11-05T21:45:29.730Z,10.90
2022-11-05T21:48:28.628Z,10.80
2022-11-05T21:55:00.959Z,10.90
2022-11-05T21:58:17.612Z,10.80
2022-11-05T22:01:11.273Z,10.80
2022-11-05T22:10:30.119Z,10.80
2022-11-05T22:13:25.588Z,10.70
2022-11-05T22:16:22.986Z,10.80
2022-11-05T22:19:19.600Z,10.70
2022-11-05T22:46:31.079Z,10.80
2022-11-05T22:49:18.732Z,10.80
2022-11-05T22:52:05.876Z,10.80
2022-11-05T22:54:53.339Z,10.70
2022-11-05T22:57:41.016Z,10.80
2022-11-05T23:00:36.200Z,10.70
2022-11-05T23:03:29.704Z,10.80
2022-11-05T23:06:31.685Z,10.70
2022-11-05T23:09:39.343Z,10.80
2022-11-05T23:12:28.566Z,10.80
2022-11-05T23:15:34.915Z,10.70
2022-11-05T23:18:41.071Z,10.80
2022-11-05T23:21:46.999Z,10.70
2022-11-05T23:24:38.239Z,10.70
2022-11-05T23:27:28.551Z,10.80
